sensor_id;sensor_type;location;lat;lon;timestamp;P1;durP1;ratioP1;P2;durP2;ratioP2
44816;SDS011;30529;53.570;9.964;2023-02-21T00:00:33;6.93;;;1.40;;
44816;SDS011;30529;53.570;9.964;2023-02-21T00:03:18;4.70;;;1.43;;
44816;SDS011;30529;53.570;9.964;2023-02-21T00:06:02;4.17;;;1.50;;
44816;SDS011;30529;53.570;9.964;2023-02-21T00:08:47;3.40;;;1.30;;
44816;SDS011;30529;53.570;9.964;2023-02-21T00:11:33;3.43;;;1.50;;
44816;SDS011;30529;53.570;9.964;2023-02-21T00:14:17;3.27;;;1.30;;
44816;SDS011;30529;53.570;9.964;2023-02-21T00:17:02;5.80;;;1.20;;
44816;SDS011;30529;53.570;9.964;2023-02-21T00:19:46;3.03;;;1.00;;
44816;SDS011;30529;53.570;9.964;2023-02-21T00:22:31;1.77;;;1.00;;
44816;SDS011;30529;53.570;9.964;2023-02-21T00:25:16;2.87;;;1.30;;
44816;SDS011;30529;53.570;9.964;2023-02-21T00:28:00;4.33;;;1.13;;
44816;SDS011;30529;53.570;9.964;2023-02-21T00:30:48;2.23;;;0.90;;
44816;SDS011;30529;53.570;9.964;2023-02-21T00:33:34;3.70;;;1.23;;
44816;SDS011;30529;53.570;9.964;2023-02-21T00:36:19;2.70;;;0.93;;
44816;SDS011;30529;53.570;9.964;2023-02-21T00:39:04;1.97;;;1.00;;
44816;SDS011;30529;53.570;9.964;2023-02-21T00:41:49;3.70;;;1.20;;
44816;SDS011;30529;53.570;9.964;2023-02-21T00:44:33;2.40;;;0.87;;
44816;SDS011;30529;53.570;9.964;2023-02-21T00:47:18;1.83;;;0.70;;
44816;SDS011;30529;53.570;9.964;2023-02-21T00:50:03;1.90;;;1.00;;
44816;SDS011;30529;53.570;9.964;2023-02-21T00:52:47;3.00;;;0.87;;
44816;SDS011;30529;53.570;9.964;2023-02-21T00:55:32;1.00;;;0.90;;
44816;SDS011;30529;53.570;9.964;2023-02-21T00:58:19;1.13;;;0.70;;
44816;SDS011;30529;53.570;9.964;2023-02-21T01:01:07;2.17;;;0.90;;
44816;SDS011;30529;53.570;9.964;2023-02-21T01:03:51;3.20;;;0.80;;
44816;SDS011;30529;53.570;9.964;2023-02-21T01:06:36;2.93;;;0.90;;
44816;SDS011;30529;53.570;9.964;2023-02-21T01:09:22;0.97;;;0.80;;
44816;SDS011;30529;53.570;9.964;2023-02-21T01:12:06;2.17;;;0.97;;
44816;SDS011;30529;53.570;9.964;2023-02-21T01:14:51;3.10;;;1.13;;
44816;SDS011;30529;53.570;9.964;2023-02-21T01:17:35;1.00;;;0.90;;
44816;SDS011;30529;53.570;9.964;2023-02-21T01:20:20;1.27;;;0.50;;
44816;SDS011;30529;53.570;9.964;2023-02-21T01:23:04;1.63;;;0.63;;
44816;SDS011;30529;53.570;9.964;2023-02-21T01:25:49;2.70;;;0.90;;
44816;SDS011;30529;53.570;9.964;2023-02-21T01:28:33;1.33;;;0.70;;
44816;SDS011;30529;53.570;9.964;2023-02-21T01:31:20;1.40;;;0.63;;
44816;SDS011;30529;53.570;9.964;2023-02-21T01:34:04;2.13;;;0.70;;
44816;SDS011;30529;53.570;9.964;2023-02-21T01:36:50;1.87;;;0.70;;
44816;SDS011;30529;53.570;9.964;2023-02-21T01:39:34;2.47;;;0.87;;
44816;SDS011;30529;53.570;9.964;2023-02-21T01:42:19;1.20;;;0.70;;
44816;SDS011;30529;53.570;9.964;2023-02-21T01:45:24;1.63;;;0.70;;
44816;SDS011;30529;53.570;9.964;2023-02-21T01:48:16;4.30;;;0.77;;
44816;SDS011;30529;53.570;9.964;2023-02-21T01:51:03;0.90;;;0.80;;
44816;SDS011;30529;53.570;9.964;2023-02-21T01:53:51;2.33;;;1.07;;
44816;SDS011;30529;53.570;9.964;2023-02-21T01:56:37;1.93;;;1.07;;
44816;SDS011;30529;53.570;9.964;2023-02-21T01:59:22;1.63;;;1.00;;
44816;SDS011;30529;53.570;9.964;2023-02-21T02:02:14;3.47;;;0.80;;
44816;SDS011;30529;53.570;9.964;2023-02-21T02:05:02;2.37;;;0.80;;
44816;SDS011;30529;53.570;9.964;2023-02-21T02:07:48;1.30;;;0.80;;
44816;SDS011;30529;53.570;9.964;2023-02-21T02:10:34;2.10;;;0.83;;
44816;SDS011;30529;53.570;9.964;2023-02-21T02:21:10;3.70;;;1.20;;
44816;SDS011;30529;53.570;9.964;2023-02-21T02:32:36;1.60;;;1.00;;
44816;SDS011;30529;53.570;9.964;2023-02-21T02:35:30;2.97;;;0.97;;
44816;SDS011;30529;53.570;9.964;2023-02-21T02:38:15;4.10;;;1.10;;
44816;SDS011;30529;53.570;9.964;2023-02-21T02:40:59;3.93;;;1.10;;
44816;SDS011;30529;53.570;9.964;2023-02-21T02:43:48;1.37;;;1.00;;
44816;SDS011;30529;53.570;9.964;2023-02-21T02:46:23;2.07;;;1.17;;
44816;SDS011;30529;53.570;9.964;2023-02-21T02:48:54;2.00;;;0.70;;
44816;SDS011;30529;53.570;9.964;2023-02-21T02:51:31;2.40;;;1.00;;
44816;SDS011;30529;53.570;9.964;2023-02-21T02:53:58;1.53;;;0.80;;
44816;SDS011;30529;53.570;9.964;2023-02-21T02:56:24;0.83;;;0.80;;
44816;SDS011;30529;53.570;9.964;2023-02-21T02:58:54;1.77;;;0.90;;
44816;SDS011;30529;53.570;9.964;2023-02-21T03:01:35;1.43;;;0.80;;
44816;SDS011;30529;53.570;9.964;2023-02-21T03:07:13;2.47;;;1.13;;
44816;SDS011;30529;53.570;9.964;2023-02-21T03:09:47;3.00;;;0.93;;
44816;SDS011;30529;53.570;9.964;2023-02-21T03:12:36;1.07;;;0.73;;
44816;SDS011;30529;53.570;9.964;2023-02-21T03:15:14;1.37;;;0.80;;
44816;SDS011;30529;53.570;9.964;2023-02-21T03:17:52;2.93;;;1.00;;
44816;SDS011;30529;53.570;9.964;2023-02-21T03:20:25;1.77;;;0.80;;
44816;SDS011;30529;53.570;9.964;2023-02-21T03:22:52;1.40;;;1.00;;
44816;SDS011;30529;53.570;9.964;2023-02-21T03:25:20;2.10;;;1.00;;
44816;SDS011;30529;53.570;9.964;2023-02-21T03:27:48;1.33;;;0.70;;
44816;SDS011;30529;53.570;9.964;2023-02-21T03:30:17;1.10;;;0.70;;
44816;SDS011;30529;53.570;9.964;2023-02-21T03:32:45;1.53;;;0.77;;
44816;SDS011;30529;53.570;9.964;2023-02-21T03:35:17;1.50;;;0.73;;
44816;SDS011;30529;53.570;9.964;2023-02-21T03:37:52;1.80;;;0.70;;
44816;SDS011;30529;53.570;9.964;2023-02-21T03:40:20;1.03;;;0.70;;
44816;SDS011;30529;53.570;9.964;2023-02-21T03:42:48;1.70;;;0.80;;
44816;SDS011;30529;53.570;9.964;2023-02-21T03:45:15;1.63;;;0.70;;
44816;SDS011;30529;53.570;9.964;2023-02-21T03:47:41;1.00;;;0.60;;
44816;SDS011;30529;53.570;9.964;2023-02-21T03:50:07;2.60;;;0.70;;
44816;SDS011;30529;53.570;9.964;2023-02-21T03:52:33;2.67;;;1.10;;
44816;SDS011;30529;53.570;9.964;2023-02-21T03:54:59;2.10;;;0.80;;
44816;SDS011;30529;53.570;9.964;2023-02-21T03:57:25;2.63;;;0.90;;
44816;SDS011;30529;53.570;9.964;2023-02-21T03:59:51;1.10;;;0.70;;
44816;SDS011;30529;53.570;9.964;2023-02-21T04:02:17;3.83;;;1.10;;
44816;SDS011;30529;53.570;9.964;2023-02-21T04:04:44;1.90;;;1.00;;
44816;SDS011;30529;53.570;9.964;2023-02-21T04:07:13;0.97;;;0.70;;
44816;SDS011;30529;53.570;9.964;2023-02-21T04:09:40;2.93;;;1.33;;
44816;SDS011;30529;53.570;9.964;2023-02-21T04:12:07;1.60;;;0.80;;
44816;SDS011;30529;53.570;9.964;2023-02-21T04:14:33;1.47;;;1.00;;
44816;SDS011;30529;53.570;9.964;2023-02-21T04:16:59;1.30;;;1.10;;
44816;SDS011;30529;53.570;9.964;2023-02-21T04:19:25;1.27;;;0.83;;
44816;SDS011;30529;53.570;9.964;2023-02-21T04:21:51;3.67;;;0.90;;
44816;SDS011;30529;53.570;9.964;2023-02-21T04:24:17;2.40;;;0.90;;
44816;SDS011;30529;53.570;9.964;2023-02-21T04:26:43;2.33;;;1.23;;
44816;SDS011;30529;53.570;9.964;2023-02-21T04:29:09;3.23;;;1.20;;
44816;SDS011;30529;53.570;9.964;2023-02-21T04:31:35;2.07;;;1.10;;
44816;SDS011;30529;53.570;9.964;2023-02-21T04:34:01;2.50;;;1.27;;
44816;SDS011;30529;53.570;9.964;2023-02-21T04:36:27;6.07;;;1.27;;
44816;SDS011;30529;53.570;9.964;2023-02-21T04:38:53;3.77;;;1.33;;
44816;SDS011;30529;53.570;9.964;2023-02-21T04:41:19;9.60;;;2.40;;
44816;SDS011;30529;53.570;9.964;2023-02-21T04:43:45;12.67;;;2.53;;
44816;SDS011;30529;53.570;9.964;2023-02-21T04:46:15;10.13;;;2.17;;
44816;SDS011;30529;53.570;9.964;2023-02-21T04:48:45;13.30;;;2.20;;
44816;SDS011;30529;53.570;9.964;2023-02-21T04:51:14;13.13;;;2.13;;
44816;SDS011;30529;53.570;9.964;2023-02-21T04:53:42;10.40;;;2.80;;
44816;SDS011;30529;53.570;9.964;2023-02-21T04:56:13;11.63;;;2.60;;
44816;SDS011;30529;53.570;9.964;2023-02-21T04:58:42;27.13;;;4.70;;
44816;SDS011;30529;53.570;9.964;2023-02-21T05:01:09;9.60;;;2.23;;
44816;SDS011;30529;53.570;9.964;2023-02-21T05:03:36;9.27;;;2.20;;
44816;SDS011;30529;53.570;9.964;2023-02-21T05:06:02;12.13;;;2.07;;
44816;SDS011;30529;53.570;9.964;2023-02-21T05:08:28;15.07;;;2.57;;
44816;SDS011;30529;53.570;9.964;2023-02-21T05:10:54;12.70;;;2.70;;
44816;SDS011;30529;53.570;9.964;2023-02-21T05:13:20;16.33;;;2.83;;
44816;SDS011;30529;53.570;9.964;2023-02-21T05:15:47;14.30;;;2.57;;
44816;SDS011;30529;53.570;9.964;2023-02-21T05:18:13;14.57;;;2.87;;
44816;SDS011;30529;53.570;9.964;2023-02-21T05:20:49;15.07;;;3.20;;
44816;SDS011;30529;53.570;9.964;2023-02-21T05:23:16;21.70;;;4.67;;
44816;SDS011;30529;53.570;9.964;2023-02-21T05:25:43;19.10;;;2.73;;
44816;SDS011;30529;53.570;9.964;2023-02-21T05:28:09;14.37;;;2.63;;
44816;SDS011;30529;53.570;9.964;2023-02-21T05:30:35;10.37;;;2.20;;
44816;SDS011;30529;53.570;9.964;2023-02-21T05:33:01;14.23;;;2.60;;
44816;SDS011;30529;53.570;9.964;2023-02-21T05:35:27;13.30;;;2.93;;
44816;SDS011;30529;53.570;9.964;2023-02-21T05:37:53;10.57;;;2.23;;
44816;SDS011;30529;53.570;9.964;2023-02-21T05:40:19;13.43;;;2.60;;
44816;SDS011;30529;53.570;9.964;2023-02-21T05:42:46;11.10;;;2.27;;
44816;SDS011;30529;53.570;9.964;2023-02-21T05:45:12;14.00;;;2.73;;
44816;SDS011;30529;53.570;9.964;2023-02-21T05:47:38;17.40;;;2.57;;
44816;SDS011;30529;53.570;9.964;2023-02-21T05:50:04;13.07;;;2.63;;
44816;SDS011;30529;53.570;9.964;2023-02-21T05:52:30;17.13;;;2.90;;
44816;SDS011;30529;53.570;9.964;2023-02-21T05:54:57;16.33;;;2.97;;
44816;SDS011;30529;53.570;9.964;2023-02-21T05:57:23;10.23;;;2.77;;
44816;SDS011;30529;53.570;9.964;2023-02-21T05:59:49;10.17;;;2.43;;
44816;SDS011;30529;53.570;9.964;2023-02-21T06:02:15;11.43;;;2.73;;
44816;SDS011;30529;53.570;9.964;2023-02-21T06:04:41;11.50;;;3.37;;
44816;SDS011;30529;53.570;9.964;2023-02-21T06:07:07;14.17;;;2.57;;
44816;SDS011;30529;53.570;9.964;2023-02-21T06:09:32;11.37;;;2.47;;
44816;SDS011;30529;53.570;9.964;2023-02-21T06:11:58;9.80;;;2.60;;
44816;SDS011;30529;53.570;9.964;2023-02-21T06:14:25;13.80;;;2.80;;
44816;SDS011;30529;53.570;9.964;2023-02-21T06:16:51;12.33;;;3.20;;
44816;SDS011;30529;53.570;9.964;2023-02-21T06:19:17;18.03;;;2.90;;
44816;SDS011;30529;53.570;9.964;2023-02-21T06:21:43;14.50;;;3.00;;
44816;SDS011;30529;53.570;9.964;2023-02-21T06:24:10;10.97;;;2.40;;
44816;SDS011;30529;53.570;9.964;2023-02-21T06:26:37;11.80;;;2.17;;
44816;SDS011;30529;53.570;9.964;2023-02-21T06:29:05;16.27;;;3.50;;
44816;SDS011;30529;53.570;9.964;2023-02-21T06:31:31;15.10;;;2.70;;
44816;SDS011;30529;53.570;9.964;2023-02-21T06:33:58;13.47;;;2.90;;
44816;SDS011;30529;53.570;9.964;2023-02-21T06:36:25;12.47;;;2.83;;
44816;SDS011;30529;53.570;9.964;2023-02-21T06:38:52;16.77;;;3.00;;
44816;SDS011;30529;53.570;9.964;2023-02-21T06:41:21;17.57;;;3.17;;
44816;SDS011;30529;53.570;9.964;2023-02-21T06:43:49;10.97;;;2.27;;
44816;SDS011;30529;53.570;9.964;2023-02-21T06:46:17;21.00;;;3.57;;
44816;SDS011;30529;53.570;9.964;2023-02-21T06:48:45;17.33;;;3.37;;
44816;SDS011;30529;53.570;9.964;2023-02-21T06:51:11;17.07;;;4.10;;
44816;SDS011;30529;53.570;9.964;2023-02-21T06:53:42;17.07;;;4.33;;
44816;SDS011;30529;53.570;9.964;2023-02-21T06:56:09;11.93;;;2.40;;
44816;SDS011;30529;53.570;9.964;2023-02-21T06:58:36;16.17;;;3.27;;
44816;SDS011;30529;53.570;9.964;2023-02-21T07:01:02;16.47;;;3.70;;
44816;SDS011;30529;53.570;9.964;2023-02-21T07:03:28;13.77;;;3.33;;
44816;SDS011;30529;53.570;9.964;2023-02-21T07:05:54;10.80;;;2.70;;
44816;SDS011;30529;53.570;9.964;2023-02-21T07:08:20;13.17;;;3.23;;
44816;SDS011;30529;53.570;9.964;2023-02-21T07:10:46;16.60;;;3.57;;
44816;SDS011;30529;53.570;9.964;2023-02-21T07:13:12;17.23;;;2.57;;
44816;SDS011;30529;53.570;9.964;2023-02-21T07:15:39;16.47;;;3.37;;
44816;SDS011;30529;53.570;9.964;2023-02-21T07:18:05;12.20;;;3.17;;
44816;SDS011;30529;53.570;9.964;2023-02-21T07:20:30;15.47;;;3.37;;
44816;SDS011;30529;53.570;9.964;2023-02-21T07:22:58;11.63;;;3.20;;
44816;SDS011;30529;53.570;9.964;2023-02-21T07:25:24;10.97;;;2.90;;
44816;SDS011;30529;53.570;9.964;2023-02-21T07:27:50;20.43;;;3.30;;
44816;SDS011;30529;53.570;9.964;2023-02-21T07:30:17;13.00;;;2.87;;
44816;SDS011;30529;53.570;9.964;2023-02-21T07:32:43;16.47;;;4.00;;
44816;SDS011;30529;53.570;9.964;2023-02-21T07:35:10;17.13;;;3.60;;
44816;SDS011;30529;53.570;9.964;2023-02-21T07:37:36;14.77;;;2.93;;
44816;SDS011;30529;53.570;9.964;2023-02-21T07:40:02;12.07;;;2.63;;
44816;SDS011;30529;53.570;9.964;2023-02-21T07:42:31;19.03;;;3.57;;
44816;SDS011;30529;53.570;9.964;2023-02-21T07:44:58;16.17;;;3.03;;
44816;SDS011;30529;53.570;9.964;2023-02-21T07:47:27;20.97;;;3.63;;
44816;SDS011;30529;53.570;9.964;2023-02-21T07:49:53;16.90;;;3.93;;
44816;SDS011;30529;53.570;9.964;2023-02-21T07:52:20;9.37;;;2.50;;
44816;SDS011;30529;53.570;9.964;2023-02-21T07:54:46;23.37;;;3.73;;
44816;SDS011;30529;53.570;9.964;2023-02-21T07:57:13;15.13;;;3.33;;
44816;SDS011;30529;53.570;9.964;2023-02-21T07:59:40;17.77;;;4.47;;
44816;SDS011;30529;53.570;9.964;2023-02-21T08:02:06;13.73;;;3.33;;
44816;SDS011;30529;53.570;9.964;2023-02-21T08:04:38;14.50;;;3.37;;
44816;SDS011;30529;53.570;9.964;2023-02-21T08:07:05;15.97;;;3.50;;
44816;SDS011;30529;53.570;9.964;2023-02-21T08:09:31;9.60;;;2.70;;
44816;SDS011;30529;53.570;9.964;2023-02-21T08:12:01;12.70;;;3.20;;
44816;SDS011;30529;53.570;9.964;2023-02-21T08:14:30;14.13;;;2.90;;
44816;SDS011;30529;53.570;9.964;2023-02-21T08:16:56;13.33;;;3.47;;
44816;SDS011;30529;53.570;9.964;2023-02-21T08:19:22;9.80;;;2.77;;
44816;SDS011;30529;53.570;9.964;2023-02-21T08:21:49;17.33;;;4.73;;
44816;SDS011;30529;53.570;9.964;2023-02-21T08:24:15;12.80;;;3.50;;
44816;SDS011;30529;53.570;9.964;2023-02-21T08:26:42;14.00;;;2.70;;
44816;SDS011;30529;53.570;9.964;2023-02-21T08:29:10;15.77;;;3.73;;
44816;SDS011;30529;53.570;9.964;2023-02-21T08:31:37;16.07;;;2.97;;
44816;SDS011;30529;53.570;9.964;2023-02-21T08:34:04;14.50;;;3.23;;
44816;SDS011;30529;53.570;9.964;2023-02-21T08:36:35;15.17;;;3.33;;
44816;SDS011;30529;53.570;9.964;2023-02-21T08:39:03;19.43;;;3.33;;
44816;SDS011;30529;53.570;9.964;2023-02-21T08:44:07;16.10;;;3.87;;
44816;SDS011;30529;53.570;9.964;2023-02-21T08:46:34;16.87;;;3.03;;
44816;SDS011;30529;53.570;9.964;2023-02-21T08:49:01;15.73;;;2.87;;
44816;SDS011;30529;53.570;9.964;2023-02-21T08:51:28;17.20;;;3.60;;
44816;SDS011;30529;53.570;9.964;2023-02-21T08:53:56;14.43;;;2.80;;
44816;SDS011;30529;53.570;9.964;2023-02-21T08:56:23;17.07;;;3.97;;
44816;SDS011;30529;53.570;9.964;2023-02-21T08:58:50;9.53;;;2.80;;
44816;SDS011;30529;53.570;9.964;2023-02-21T09:01:18;7.83;;;3.30;;
44816;SDS011;30529;53.570;9.964;2023-02-21T09:03:50;13.60;;;3.60;;
44816;SDS011;30529;53.570;9.964;2023-02-21T09:06:20;12.47;;;3.30;;
44816;SDS011;30529;53.570;9.964;2023-02-21T09:08:46;18.53;;;2.90;;
44816;SDS011;30529;53.570;9.964;2023-02-21T09:11:12;18.57;;;4.43;;
44816;SDS011;30529;53.570;9.964;2023-02-21T09:13:38;17.07;;;5.00;;
44816;SDS011;30529;53.570;9.964;2023-02-21T09:16:04;17.53;;;4.33;;
44816;SDS011;30529;53.570;9.964;2023-02-21T09:18:33;14.80;;;2.30;;
44816;SDS011;30529;53.570;9.964;2023-02-21T09:20:59;17.57;;;3.70;;
44816;SDS011;30529;53.570;9.964;2023-02-21T09:23:26;16.10;;;3.90;;
44816;SDS011;30529;53.570;9.964;2023-02-21T09:25:54;15.07;;;2.97;;
44816;SDS011;30529;53.570;9.964;2023-02-21T09:28:20;13.97;;;3.00;;
44816;SDS011;30529;53.570;9.964;2023-02-21T09:30:47;20.23;;;3.30;;
44816;SDS011;30529;53.570;9.964;2023-02-21T09:33:17;18.40;;;3.00;;
44816;SDS011;30529;53.570;9.964;2023-02-21T09:35:43;13.33;;;2.70;;
44816;SDS011;30529;53.570;9.964;2023-02-21T09:38:09;13.23;;;2.60;;
44816;SDS011;30529;53.570;9.964;2023-02-21T09:43:04;13.83;;;2.90;;
44816;SDS011;30529;53.570;9.964;2023-02-21T09:45:36;12.50;;;2.93;;
44816;SDS011;30529;53.570;9.964;2023-02-21T09:48:06;22.33;;;4.00;;
44816;SDS011;30529;53.570;9.964;2023-02-21T09:53:43;13.37;;;2.90;;
44816;SDS011;30529;53.570;9.964;2023-02-21T09:56:18;15.90;;;3.53;;
44816;SDS011;30529;53.570;9.964;2023-02-21T09:58:52;13.33;;;3.53;;
44816;SDS011;30529;53.570;9.964;2023-02-21T10:13:10;13.67;;;2.43;;
44816;SDS011;30529;53.570;9.964;2023-02-21T10:21:27;15.67;;;2.60;;
44816;SDS011;30529;53.570;9.964;2023-02-21T10:23:57;15.33;;;3.93;;
44816;SDS011;30529;53.570;9.964;2023-02-21T10:26:30;11.10;;;2.63;;
44816;SDS011;30529;53.570;9.964;2023-02-21T10:29:13;16.50;;;2.50;;
44816;SDS011;30529;53.570;9.964;2023-02-21T10:31:47;16.77;;;2.63;;
44816;SDS011;30529;53.570;9.964;2023-02-21T10:34:25;18.77;;;3.43;;
44816;SDS011;30529;53.570;9.964;2023-02-21T10:36:57;12.20;;;3.00;;
44816;SDS011;30529;53.570;9.964;2023-02-21T10:39:45;14.50;;;3.80;;
44816;SDS011;30529;53.570;9.964;2023-02-21T10:42:29;11.37;;;3.57;;
44816;SDS011;30529;53.570;9.964;2023-02-21T10:45:04;18.23;;;3.93;;
44816;SDS011;30529;53.570;9.964;2023-02-21T10:47:45;18.37;;;3.10;;
44816;SDS011;30529;53.570;9.964;2023-02-21T10:50:41;14.37;;;3.23;;
44816;SDS011;30529;53.570;9.964;2023-02-21T10:53:21;11.07;;;2.50;;
44816;SDS011;30529;53.570;9.964;2023-02-21T10:56:05;13.47;;;2.47;;
44816;SDS011;30529;53.570;9.964;2023-02-21T10:58:33;19.77;;;3.97;;
44816;SDS011;30529;53.570;9.964;2023-02-21T11:01:13;12.90;;;3.60;;
44816;SDS011;30529;53.570;9.964;2023-02-21T11:03:54;14.30;;;3.03;;
44816;SDS011;30529;53.570;9.964;2023-02-21T11:08:58;14.03;;;2.77;;
44816;SDS011;30529;53.570;9.964;2023-02-21T11:11:38;12.13;;;2.60;;
44816;SDS011;30529;53.570;9.964;2023-02-21T11:14:09;15.43;;;2.80;;
44816;SDS011;30529;53.570;9.964;2023-02-21T11:16:43;10.97;;;2.93;;
44816;SDS011;30529;53.570;9.964;2023-02-21T11:19:13;11.37;;;2.67;;
44816;SDS011;30529;53.570;9.964;2023-02-21T11:21:40;12.80;;;2.40;;
44816;SDS011;30529;53.570;9.964;2023-02-21T11:24:09;11.97;;;2.70;;
44816;SDS011;30529;53.570;9.964;2023-02-21T11:29:12;11.53;;;2.17;;
44816;SDS011;30529;53.570;9.964;2023-02-21T11:31:41;10.47;;;2.37;;
44816;SDS011;30529;53.570;9.964;2023-02-21T11:34:08;9.93;;;1.93;;
44816;SDS011;30529;53.570;9.964;2023-02-21T11:36:40;14.30;;;2.50;;
44816;SDS011;30529;53.570;9.964;2023-02-21T11:39:18;15.17;;;3.43;;
44816;SDS011;30529;53.570;9.964;2023-02-21T11:41:53;11.67;;;2.93;;
44816;SDS011;30529;53.570;9.964;2023-02-21T11:44:25;13.37;;;2.57;;
44816;SDS011;30529;53.570;9.964;2023-02-21T11:47:03;7.87;;;2.03;;
44816;SDS011;30529;53.570;9.964;2023-02-21T11:49:57;12.77;;;2.27;;
44816;SDS011;30529;53.570;9.964;2023-02-21T11:52:33;9.10;;;2.43;;
44816;SDS011;30529;53.570;9.964;2023-02-21T11:55:12;10.47;;;2.30;;
44816;SDS011;30529;53.570;9.964;2023-02-21T11:57:43;10.27;;;2.17;;
44816;SDS011;30529;53.570;9.964;2023-02-21T12:03:23;6.23;;;2.23;;
44816;SDS011;30529;53.570;9.964;2023-02-21T12:08:44;7.80;;;2.07;;
44816;SDS011;30529;53.570;9.964;2023-02-21T12:26:17;8.53;;;2.23;;
44816;SDS011;30529;53.570;9.964;2023-02-21T12:28:58;6.17;;;2.50;;
44816;SDS011;30529;53.570;9.964;2023-02-21T12:32:00;6.53;;;2.10;;
44816;SDS011;30529;53.570;9.964;2023-02-21T12:34:55;4.87;;;2.00;;
44816;SDS011;30529;53.570;9.964;2023-02-21T12:38:01;8.60;;;2.93;;
44816;SDS011;30529;53.570;9.964;2023-02-21T12:40:41;6.57;;;1.70;;
44816;SDS011;30529;53.570;9.964;2023-02-21T12:49:09;6.17;;;1.83;;
44816;SDS011;30529;53.570;9.964;2023-02-21T12:51:43;11.73;;;2.00;;
44816;SDS011;30529;53.570;9.964;2023-02-21T12:54:21;6.93;;;1.63;;
44816;SDS011;30529;53.570;9.964;2023-02-21T12:57:14;6.33;;;2.20;;
44816;SDS011;30529;53.570;9.964;2023-02-21T13:00:00;8.63;;;2.47;;
44816;SDS011;30529;53.570;9.964;2023-02-21T13:02:44;8.10;;;2.10;;
44816;SDS011;30529;53.570;9.964;2023-02-21T13:05:32;7.73;;;1.80;;
44816;SDS011;30529;53.570;9.964;2023-02-21T13:08:08;5.83;;;2.10;;
44816;SDS011;30529;53.570;9.964;2023-02-21T13:10:51;6.70;;;2.80;;
44816;SDS011;30529;53.570;9.964;2023-02-21T13:13:24;6.77;;;2.37;;
44816;SDS011;30529;53.570;9.964;2023-02-21T13:15:53;4.77;;;2.00;;
44816;SDS011;30529;53.570;9.964;2023-02-21T13:20:54;7.70;;;2.70;;
44816;SDS011;30529;53.570;9.964;2023-02-21T13:23:24;6.93;;;2.33;;
44816;SDS011;30529;53.570;9.964;2023-02-21T13:28:38;6.87;;;2.37;;
44816;SDS011;30529;53.570;9.964;2023-02-21T13:31:09;6.57;;;2.37;;
44816;SDS011;30529;53.570;9.964;2023-02-21T13:33:47;7.80;;;2.20;;
44816;SDS011;30529;53.570;9.964;2023-02-21T13:36:19;6.83;;;2.00;;
44816;SDS011;30529;53.570;9.964;2023-02-21T13:38:56;10.03;;;2.30;;
44816;SDS011;30529;53.570;9.964;2023-02-21T13:41:44;7.93;;;1.87;;
44816;SDS011;30529;53.570;9.964;2023-02-21T13:44:23;5.50;;;2.10;;
44816;SDS011;30529;53.570;9.964;2023-02-21T13:46:59;4.27;;;1.70;;
44816;SDS011;30529;53.570;9.964;2023-02-21T13:49:41;7.63;;;2.07;;
44816;SDS011;30529;53.570;9.964;2023-02-21T13:55:08;6.63;;;1.97;;
44816;SDS011;30529;53.570;9.964;2023-02-21T13:57:41;3.80;;;1.23;;
44816;SDS011;30529;53.570;9.964;2023-02-21T14:10:50;9.77;;;2.30;;
44816;SDS011;30529;53.570;9.964;2023-02-21T14:24:00;4.90;;;1.60;;
44816;SDS011;30529;53.570;9.964;2023-02-21T14:26:49;7.33;;;1.60;;
44816;SDS011;30529;53.570;9.964;2023-02-21T14:37:13;5.57;;;1.70;;
44816;SDS011;30529;53.570;9.964;2023-02-21T14:39:52;6.33;;;1.80;;
44816;SDS011;30529;53.570;9.964;2023-02-21T14:57:14;6.33;;;1.70;;
44816;SDS011;30529;53.570;9.964;2023-02-21T15:00:12;4.50;;;1.30;;
44816;SDS011;30529;53.570;9.964;2023-02-21T15:02:55;6.90;;;1.47;;
44816;SDS011;30529;53.570;9.964;2023-02-21T15:08:26;7.33;;;1.47;;
44816;SDS011;30529;53.570;9.964;2023-02-21T15:10:58;6.40;;;1.40;;
44816;SDS011;30529;53.570;9.964;2023-02-21T15:13:31;6.63;;;1.90;;
44816;SDS011;30529;53.570;9.964;2023-02-21T15:16:02;4.07;;;1.50;;
44816;SDS011;30529;53.570;9.964;2023-02-21T15:18:35;5.37;;;1.30;;
44816;SDS011;30529;53.570;9.964;2023-02-21T15:23:35;7.77;;;2.00;;
44816;SDS011;30529;53.570;9.964;2023-02-21T15:26:16;6.93;;;2.30;;
44816;SDS011;30529;53.570;9.964;2023-02-21T15:31:37;6.27;;;1.40;;
44816;SDS011;30529;53.570;9.964;2023-02-21T15:34:13;4.40;;;1.50;;
44816;SDS011;30529;53.570;9.964;2023-02-21T15:36:45;3.60;;;1.80;;
44816;SDS011;30529;53.570;9.964;2023-02-21T15:39:26;6.37;;;1.40;;
44816;SDS011;30529;53.570;9.964;2023-02-21T15:41:56;1.90;;;1.00;;
44816;SDS011;30529;53.570;9.964;2023-02-21T15:49:26;7.00;;;2.00;;
44816;SDS011;30529;53.570;9.964;2023-02-21T15:52:02;7.03;;;1.43;;
44816;SDS011;30529;53.570;9.964;2023-02-21T15:54:30;7.13;;;1.83;;
44816;SDS011;30529;53.570;9.964;2023-02-21T15:57:11;9.23;;;1.57;;
44816;SDS011;30529;53.570;9.964;2023-02-21T15:59:46;5.43;;;2.17;;
44816;SDS011;30529;53.570;9.964;2023-02-21T16:02:14;6.07;;;1.90;;
44816;SDS011;30529;53.570;9.964;2023-02-21T16:04:45;10.03;;;2.43;;
44816;SDS011;30529;53.570;9.964;2023-02-21T16:07:14;12.37;;;2.67;;
44816;SDS011;30529;53.570;9.964;2023-02-21T16:09:58;11.13;;;2.13;;
44816;SDS011;30529;53.570;9.964;2023-02-21T16:12:39;5.37;;;2.00;;
44816;SDS011;30529;53.570;9.964;2023-02-21T16:17:43;12.83;;;2.43;;
44816;SDS011;30529;53.570;9.964;2023-02-21T16:22:43;7.57;;;2.57;;
44816;SDS011;30529;53.570;9.964;2023-02-21T16:27:40;8.87;;;2.50;;
44816;SDS011;30529;53.570;9.964;2023-02-21T16:30:16;9.90;;;2.60;;
44816;SDS011;30529;53.570;9.964;2023-02-21T16:32:54;7.63;;;1.80;;
44816;SDS011;30529;53.570;9.964;2023-02-21T16:35:24;9.20;;;2.17;;
44816;SDS011;30529;53.570;9.964;2023-02-21T16:37:53;5.73;;;2.00;;
44816;SDS011;30529;53.570;9.964;2023-02-21T16:40:25;9.13;;;3.60;;
44816;SDS011;30529;53.570;9.964;2023-02-21T16:42:53;6.90;;;2.33;;
44816;SDS011;30529;53.570;9.964;2023-02-21T16:45:20;5.87;;;2.00;;
44816;SDS011;30529;53.570;9.964;2023-02-21T16:47:48;6.13;;;1.60;;
44816;SDS011;30529;53.570;9.964;2023-02-21T16:50:16;7.77;;;2.20;;
44816;SDS011;30529;53.570;9.964;2023-02-21T16:52:47;8.40;;;2.00;;
44816;SDS011;30529;53.570;9.964;2023-02-21T16:55:14;7.20;;;1.90;;
44816;SDS011;30529;53.570;9.964;2023-02-21T16:57:41;6.90;;;1.90;;
44816;SDS011;30529;53.570;9.964;2023-02-21T17:00:10;5.13;;;1.80;;
44816;SDS011;30529;53.570;9.964;2023-02-21T17:02:40;5.03;;;1.80;;
44816;SDS011;30529;53.570;9.964;2023-02-21T17:05:06;5.93;;;2.77;;
44816;SDS011;30529;53.570;9.964;2023-02-21T17:07:32;7.20;;;2.20;;
44816;SDS011;30529;53.570;9.964;2023-02-21T17:09:58;5.97;;;1.77;;
44816;SDS011;30529;53.570;9.964;2023-02-21T17:12:24;6.00;;;1.80;;
44816;SDS011;30529;53.570;9.964;2023-02-21T17:14:50;4.17;;;1.83;;
44816;SDS011;30529;53.570;9.964;2023-02-21T17:17:16;5.07;;;2.73;;
44816;SDS011;30529;53.570;9.964;2023-02-21T17:19:42;9.60;;;2.60;;
44816;SDS011;30529;53.570;9.964;2023-02-21T17:22:08;5.53;;;2.00;;
44816;SDS011;30529;53.570;9.964;2023-02-21T17:24:34;5.27;;;2.30;;
44816;SDS011;30529;53.570;9.964;2023-02-21T17:27:00;5.13;;;2.80;;
44816;SDS011;30529;53.570;9.964;2023-02-21T17:29:27;6.63;;;2.03;;
44816;SDS011;30529;53.570;9.964;2023-02-21T17:31:53;5.20;;;1.80;;
44816;SDS011;30529;53.570;9.964;2023-02-21T17:34:20;5.57;;;2.10;;
44816;SDS011;30529;53.570;9.964;2023-02-21T17:36:50;5.23;;;2.60;;
44816;SDS011;30529;53.570;9.964;2023-02-21T17:39:17;5.20;;;2.33;;
44816;SDS011;30529;53.570;9.964;2023-02-21T17:41:47;6.30;;;2.00;;
44816;SDS011;30529;53.570;9.964;2023-02-21T17:44:14;4.50;;;2.00;;